Tall Timbers, Maryland
Current Conditions -  °F | °C
As of 2:53 AM on Saturday 25 Oct 2014 (Local Time) from KNUI Reporting Station
Clear Clear  
Wind Chill: 55°   Ceiling: Unl
Heat Index: 55°   Visibility: 10mi
Dew Point: 37°   Wind: 6mph
Humidity: 51%   Direction: 320°NW
Pressure: 29.95"   Gusts: NA
Location:  38.17°N, 76.55°W
Report Text: KNUI 250653Z AUTO 32005KT 10SM CLR 13/03 A2995 RMK AO2 SLP140 T01280028 $
Loading
Personal Weather Stations






























Interactive Weather Map New forecast layout! Learn more

10-Day Weather Forecast

Advertisements
Track Severe Weather on mobile